createdAt,value
2023-05-05T00:02:09.705Z,2.00
2023-05-05T00:04:37.010Z,1.95
2023-05-05T00:07:04.261Z,1.98
2023-05-05T00:09:31.580Z,1.42
2023-05-05T00:11:58.916Z,2.13
2023-05-05T00:14:26.198Z,1.88
2023-05-05T00:16:53.501Z,2.20
2023-05-05T00:19:20.792Z,1.65
2023-05-05T00:21:48.474Z,1.73
2023-05-05T00:24:16.470Z,1.92
2023-05-05T00:26:44.315Z,1.42
2023-05-05T00:29:12.428Z,1.80
2023-05-05T00:31:42.124Z,1.65
2023-05-05T00:34:10.438Z,1.67
2023-05-05T00:36:38.946Z,1.60
2023-05-05T00:41:34.250Z,2.40
2023-05-05T00:44:02.479Z,1.98
2023-05-05T00:46:33.696Z,2.45
2023-05-05T00:49:01.997Z,2.00
2023-05-05T00:51:32.155Z,2.60
2023-05-05T00:54:00.591Z,2.20
2023-05-05T00:56:28.093Z,2.35
2023-05-05T00:58:56.171Z,2.40
2023-05-05T01:01:24.070Z,2.60
2023-05-05T01:03:51.381Z,2.60
2023-05-05T01:06:35.877Z,2.63
2023-05-05T01:09:19.475Z,2.42
2023-05-05T01:12:24.438Z,2.35
2023-05-05T01:15:18.613Z,2.47
2023-05-05T01:18:00.356Z,2.28
2023-05-05T01:20:48.773Z,2.30
2023-05-05T01:23:51.348Z,2.17
2023-05-05T01:26:51.970Z,2.00
2023-05-05T01:29:40.956Z,2.03
2023-05-05T01:32:11.745Z,2.63
2023-05-05T01:34:59.329Z,2.58
2023-05-05T01:37:42.771Z,2.45
2023-05-05T01:40:12.840Z,2.00
2023-05-05T01:42:43.583Z,1.95
2023-05-05T01:45:12.753Z,2.45
2023-05-05T01:47:41.918Z,2.53
2023-05-05T01:52:39.154Z,2.03
2023-05-05T01:55:08.494Z,2.55
2023-05-05T01:57:36.825Z,2.03
2023-05-05T02:00:05.005Z,2.38
2023-05-05T02:02:45.190Z,1.83
2023-05-05T02:05:13.683Z,1.98
2023-05-05T02:07:42.551Z,1.92
2023-05-05T02:10:12.203Z,2.25
2023-05-05T02:12:42.576Z,2.30
2023-05-05T02:15:11.247Z,2.33
2023-05-05T02:17:43.069Z,2.40
2023-05-05T02:20:16.011Z,2.28
2023-05-05T02:22:43.424Z,2.13
2023-05-05T02:25:10.933Z,2.47
2023-05-05T02:27:42.950Z,2.33
2023-05-05T02:30:14.247Z,2.38
2023-05-05T02:32:49.584Z,2.15
2023-05-05T02:35:22.319Z,2.60
2023-05-05T02:38:03.082Z,2.30
2023-05-05T02:40:37.489Z,2.83
2023-05-05T02:43:09.736Z,2.38
2023-05-05T02:45:37.416Z,2.20
2023-05-05T02:48:07.696Z,2.55
2023-05-05T02:50:39.241Z,2.15
2023-05-05T02:53:15.256Z,2.60
2023-05-05T02:55:52.399Z,2.60
2023-05-05T02:58:46.147Z,2.30
2023-05-05T03:01:48.876Z,2.28
2023-05-05T03:04:39.583Z,2.83
2023-05-05T03:07:12.328Z,2.40
2023-05-05T03:09:46.281Z,2.80
2023-05-05T03:12:20.129Z,2.00
2023-05-05T03:14:58.982Z,2.83
2023-05-05T03:17:31.735Z,2.38
2023-05-05T03:20:02.933Z,2.40
2023-05-05T03:22:37.253Z,2.75
2023-05-05T03:25:06.873Z,2.60
2023-05-05T03:27:37.533Z,2.65
2023-05-05T03:30:07.002Z,2.65
2023-05-05T03:32:41.745Z,2.40
2023-05-05T03:35:10.877Z,2.30
2023-05-05T03:37:39.602Z,1.88
2023-05-05T03:40:08.280Z,2.10
2023-05-05T03:42:36.177Z,2.70
2023-05-05T03:45:05.127Z,2.47
2023-05-05T03:47:32.916Z,2.47
2023-05-05T03:50:00.994Z,2.45
2023-05-05T03:52:28.872Z,2.40
2023-05-05T03:54:57.756Z,2.33
2023-05-05T03:57:26.178Z,2.38
2023-05-05T03:59:54.815Z,2.45
2023-05-05T04:02:23.261Z,2.13
2023-05-05T04:04:50.853Z,2.78
2023-05-05T04:07:18.112Z,2.83
2023-05-05T04:09:45.573Z,2.30
2023-05-05T04:12:13.870Z,2.42
2023-05-05T04:14:41.452Z,2.55
2023-05-05T04:17:09.800Z,2.55
2023-05-05T04:19:37.092Z,2.42
2023-05-05T04:22:04.379Z,2.35
2023-05-05T04:24:32.031Z,2.80
2023-05-05T04:26:59.776Z,2.20
2023-05-05T04:31:56.818Z,2.53
2023-05-05T04:34:24.799Z,2.60
2023-05-05T04:36:52.708Z,2.38
2023-05-05T04:39:21.541Z,2.63
2023-05-05T04:41:49.799Z,2.63
2023-05-05T04:44:17.083Z,2.50
2023-05-05T04:46:44.811Z,2.50
2023-05-05T04:49:12.156Z,2.38
2023-05-05T04:51:42.694Z,2.55
2023-05-05T04:54:10.040Z,2.72
2023-05-05T04:56:37.356Z,2.67
2023-05-05T04:59:04.607Z,3.03
2023-05-05T05:01:31.908Z,2.67
2023-05-05T05:03:59.246Z,2.38
2023-05-05T05:06:27.205Z,2.53
2023-05-05T05:08:54.498Z,2.30
2023-05-05T05:11:22.148Z,2.92
2023-05-05T05:13:50.060Z,2.13
2023-05-05T05:16:17.342Z,2.28
2023-05-05T05:18:44.735Z,2.28
2023-05-05T05:21:12.038Z,2.60
2023-05-05T05:23:39.304Z,2.33
2023-05-05T05:26:07.395Z,2.70
2023-05-05T05:28:35.898Z,2.85
2023-05-05T05:31:03.256Z,2.90
2023-05-05T05:33:30.881Z,2.97
2023-05-05T05:35:59.331Z,3.15
2023-05-05T05:38:28.542Z,2.30
2023-05-05T05:40:59.281Z,2.30
2023-05-05T05:43:26.585Z,2.92
2023-05-05T05:45:53.917Z,2.67
2023-05-05T05:48:24.758Z,2.78
2023-05-05T05:50:52.710Z,3.17
2023-05-05T05:53:20.143Z,2.85
2023-05-05T05:55:47.447Z,2.80
2023-05-05T05:58:17.125Z,2.00
2023-05-05T06:00:44.855Z,3.33
2023-05-05T06:03:12.621Z,2.80
2023-05-05T06:05:40.084Z,2.42
2023-05-05T06:08:07.724Z,2.65
2023-05-05T06:10:40.026Z,3.35
2023-05-05T06:13:11.765Z,2.28
2023-05-05T06:15:42.506Z,2.67
2023-05-05T06:18:10.901Z,2.80
2023-05-05T06:20:38.370Z,3.22
2023-05-05T06:23:05.863Z,3.17
2023-05-05T06:25:36.632Z,2.47
2023-05-05T06:28:05.594Z,2.80
2023-05-05T06:33:00.369Z,2.70
2023-05-05T06:35:27.880Z,2.72
2023-05-05T06:37:55.157Z,2.80
2023-05-05T06:40:22.436Z,2.90
2023-05-05T06:42:49.749Z,3.40
2023-05-05T06:45:22.382Z,2.80
2023-05-05T06:47:49.666Z,2.88
2023-05-05T06:50:17.051Z,3.10
2023-05-05T06:52:44.400Z,3.03
2023-05-05T06:55:11.730Z,3.03
2023-05-05T06:57:39.055Z,3.03
2023-05-05T07:00:09.781Z,3.00
2023-05-05T07:02:38.221Z,2.97
2023-05-05T07:05:05.886Z,2.55
2023-05-05T07:07:33.127Z,2.83
2023-05-05T07:10:00.954Z,2.95
2023-05-05T07:12:31.119Z,3.08
2023-05-05T07:14:58.448Z,2.35
2023-05-05T07:17:25.911Z,2.65
2023-05-05T07:19:54.944Z,2.90
2023-05-05T07:22:22.196Z,2.90
2023-05-05T07:24:49.883Z,3.33
2023-05-05T07:27:22.612Z,3.38
2023-05-05T07:29:50.204Z,3.10
2023-05-05T07:32:17.607Z,2.60
2023-05-05T07:34:44.920Z,3.03
2023-05-05T07:37:12.706Z,3.00
2023-05-05T07:39:40.128Z,2.53
2023-05-05T07:42:07.789Z,2.83
2023-05-05T07:44:35.063Z,2.42
2023-05-05T07:47:02.530Z,2.60
2023-05-05T07:49:29.771Z,2.22
2023-05-05T07:51:57.081Z,3.20
2023-05-05T07:54:24.426Z,2.72
2023-05-05T07:56:51.692Z,2.67
2023-05-05T07:59:18.907Z,2.90
2023-05-05T08:01:46.198Z,2.55
2023-05-05T08:04:13.898Z,2.90
2023-05-05T08:06:41.279Z,2.85
2023-05-05T08:09:08.528Z,3.17
2023-05-05T08:11:35.854Z,3.10
2023-05-05T08:14:03.094Z,2.63
2023-05-05T08:16:30.413Z,2.83
2023-05-05T08:18:57.725Z,2.60
2023-05-05T08:21:24.996Z,2.47
2023-05-05T08:23:52.227Z,3.08
2023-05-05T08:26:19.434Z,2.65
2023-05-05T08:28:47.095Z,2.47
2023-05-05T08:31:14.388Z,2.90
2023-05-05T08:33:41.767Z,2.75
2023-05-05T08:36:09.203Z,2.80
2023-05-05T08:38:36.567Z,2.38
2023-05-05T08:41:04.053Z,3.00
2023-05-05T08:43:31.340Z,3.20
2023-05-05T08:45:59.292Z,2.60
2023-05-05T08:48:28.381Z,2.72
2023-05-05T08:51:00.300Z,2.70
2023-05-05T08:53:57.282Z,2.60
2023-05-05T08:56:32.017Z,2.40
2023-05-05T08:59:01.575Z,2.90
2023-05-05T09:01:29.962Z,2.72
2023-05-05T09:03:59.268Z,2.45
2023-05-05T09:06:27.364Z,2.50
2023-05-05T09:08:55.646Z,2.55
2023-05-05T09:11:24.244Z,2.33
2023-05-05T09:13:51.556Z,2.55
2023-05-05T09:16:18.829Z,2.50
2023-05-05T09:18:46.205Z,2.30
2023-05-05T09:21:24.777Z,2.63
2023-05-05T09:24:08.479Z,2.42
2023-05-05T09:26:39.091Z,2.50
2023-05-05T09:29:06.371Z,2.70
2023-05-05T09:31:35.103Z,2.22
2023-05-05T09:34:16.695Z,2.40
2023-05-05T09:36:47.912Z,2.45
2023-05-05T09:39:18.467Z,2.03
2023-05-05T09:41:47.521Z,2.20
2023-05-05T09:44:17.583Z,2.53
2023-05-05T09:46:51.532Z,2.55
2023-05-05T09:49:25.621Z,2.60
2023-05-05T09:51:53.784Z,2.47
2023-05-05T09:54:28.353Z,2.28
2023-05-05T09:56:57.382Z,2.55
2023-05-05T09:59:25.018Z,2.38
2023-05-05T10:01:52.413Z,2.60
2023-05-05T10:04:30.678Z,2.55
2023-05-05T10:06:59.140Z,2.47
2023-05-05T10:09:27.352Z,2.30
2023-05-05T10:11:57.833Z,2.42
2023-05-05T10:14:27.004Z,2.67
2023-05-05T10:16:55.730Z,2.53
2023-05-05T10:19:24.326Z,2.30
2023-05-05T10:24:38.363Z,2.28
2023-05-05T10:27:15.120Z,2.35
2023-05-05T10:30:06.413Z,2.63
2023-05-05T10:37:45.284Z,2.90
2023-05-05T10:40:13.848Z,2.60
2023-05-05T10:45:09.533Z,2.58
2023-05-05T10:47:37.995Z,2.60
2023-05-05T10:50:23.920Z,3.55
2023-05-05T10:53:23.533Z,2.55
2023-05-05T10:56:14.731Z,2.35
2023-05-05T10:58:58.273Z,3.17
2023-05-05T11:01:35.374Z,2.70
2023-05-05T11:04:22.085Z,2.45
2023-05-05T11:07:21.595Z,2.65
2023-05-05T11:10:01.359Z,2.42
2023-05-05T11:12:29.656Z,2.40
2023-05-05T11:15:28.112Z,2.65
2023-05-05T11:17:57.249Z,2.25
2023-05-05T11:20:37.022Z,1.98
2023-05-05T11:23:04.623Z,2.55
2023-05-05T11:25:35.545Z,2.30
2023-05-05T11:28:17.723Z,2.28
2023-05-05T11:30:57.827Z,2.28
2023-05-05T11:33:32.822Z,2.50
2023-05-05T11:38:56.446Z,2.30
2023-05-05T11:41:32.837Z,2.00
2023-05-05T11:44:13.045Z,2.25
2023-05-05T11:47:06.738Z,2.33
2023-05-05T11:49:38.578Z,2.22
2023-05-05T11:52:12.547Z,2.10
2023-05-05T11:54:47.814Z,1.73
2023-05-05T11:57:21.692Z,2.28
2023-05-05T11:59:56.510Z,2.38
2023-05-05T12:02:24.857Z,1.98
2023-05-05T12:04:54.090Z,2.08
2023-05-05T12:07:23.531Z,2.13
2023-05-05T12:09:50.934Z,2.08
2023-05-05T12:12:18.671Z,2.05
2023-05-05T12:14:52.885Z,2.92
2023-05-05T12:17:21.790Z,2.33
2023-05-05T12:19:53.962Z,2.28
2023-05-05T12:22:26.403Z,2.63
2023-05-05T12:24:58.201Z,2.10
2023-05-05T12:27:27.333Z,2.30
2023-05-05T12:29:56.957Z,1.80
2023-05-05T12:32:26.478Z,2.53
2023-05-05T12:34:57.280Z,2.10
2023-05-05T12:37:26.109Z,2.38
2023-05-05T12:39:56.762Z,2.35
2023-05-05T12:42:24.119Z,2.00
2023-05-05T12:44:51.412Z,2.30
2023-05-05T12:47:32.029Z,2.00
2023-05-05T12:50:00.781Z,1.85
2023-05-05T12:52:45.007Z,2.10
2023-05-05T12:55:13.298Z,2.00
2023-05-05T12:58:04.332Z,2.10
2023-05-05T13:00:31.726Z,2.53
2023-05-05T13:02:59.036Z,2.15
2023-05-05T13:05:33.721Z,2.42
2023-05-05T13:08:00.992Z,1.90
2023-05-05T13:10:28.463Z,2.00
2023-05-05T13:12:56.877Z,2.38
2023-05-05T13:15:25.023Z,2.10
2023-05-05T13:18:00.106Z,2.15
2023-05-05T13:20:28.132Z,2.30
2023-05-05T13:22:55.525Z,1.88
2023-05-05T13:25:23.245Z,2.13
2023-05-05T13:27:50.494Z,2.25
2023-05-05T13:30:17.744Z,1.85
2023-05-05T13:32:45.056Z,2.60
2023-05-05T13:35:14.765Z,2.60
2023-05-05T13:37:44.394Z,3.03
2023-05-05T13:40:13.360Z,2.35
2023-05-05T13:42:40.995Z,2.33
2023-05-05T13:45:09.326Z,2.72
2023-05-05T13:47:36.747Z,2.58
2023-05-05T13:50:04.753Z,2.67
2023-05-05T13:52:33.562Z,2.25
2023-05-05T13:55:01.181Z,2.63
2023-05-05T13:57:28.666Z,3.55
2023-05-05T13:59:56.344Z,2.47
2023-05-05T14:02:23.639Z,2.75
2023-05-05T14:04:51.003Z,2.40
2023-05-05T14:07:18.214Z,2.42
2023-05-05T14:09:45.508Z,2.15
2023-05-05T14:12:12.757Z,2.33
2023-05-05T14:14:40.170Z,2.67
2023-05-05T14:17:07.803Z,2.83
2023-05-05T14:19:35.152Z,2.50
2023-05-05T14:22:02.448Z,2.75
2023-05-05T14:24:29.741Z,2.25
2023-05-05T14:26:56.953Z,2.50
2023-05-05T14:29:24.195Z,2.67
2023-05-05T14:31:51.514Z,2.90
2023-05-05T14:34:18.784Z,2.60
2023-05-05T14:36:46.238Z,2.80
2023-05-05T14:39:13.510Z,2.58
2023-05-05T14:41:40.805Z,2.33
2023-05-05T14:44:08.154Z,2.75
2023-05-05T14:46:35.562Z,2.50
2023-05-05T14:49:02.832Z,2.55
2023-05-05T14:51:30.166Z,2.28
2023-05-05T14:53:57.587Z,2.17
2023-05-05T14:56:26.497Z,2.70
2023-05-05T14:58:53.750Z,2.25
2023-05-05T15:01:21.055Z,3.05
2023-05-05T15:03:48.422Z,2.85
2023-05-05T15:06:16.472Z,2.55
2023-05-05T15:08:43.706Z,2.10
2023-05-05T15:11:10.959Z,2.33
2023-05-05T15:13:40.162Z,2.47
2023-05-05T15:16:08.200Z,2.90
2023-05-05T15:18:35.672Z,2.47
2023-05-05T15:21:03.131Z,2.35
2023-05-05T15:23:30.445Z,2.40
2023-05-05T15:25:57.871Z,2.50
2023-05-05T15:28:25.217Z,2.50
2023-05-05T15:30:52.649Z,2.50
2023-05-05T15:33:19.884Z,2.50
2023-05-05T15:35:47.174Z,2.60
2023-05-05T15:38:14.422Z,2.90
2023-05-05T15:40:44.685Z,2.70
2023-05-05T15:43:13.509Z,3.20
2023-05-05T15:45:43.746Z,3.10
2023-05-05T15:48:12.258Z,2.80
2023-05-05T15:50:39.784Z,3.15
2023-05-05T15:53:07.029Z,2.92
2023-05-05T15:55:34.318Z,2.30
2023-05-05T15:58:01.882Z,3.00
2023-05-05T16:00:29.530Z,2.67
2023-05-05T16:02:56.833Z,2.58
2023-05-05T16:05:24.283Z,2.72
2023-05-05T16:07:53.565Z,2.90
2023-05-05T16:10:21.446Z,2.60
2023-05-05T16:12:49.208Z,2.88
2023-05-05T16:15:16.533Z,3.22
2023-05-05T16:17:45.519Z,3.00
2023-05-05T16:20:13.251Z,2.95
2023-05-05T16:22:40.548Z,3.00
2023-05-05T16:25:09.183Z,2.97
2023-05-05T16:27:37.526Z,2.95
2023-05-05T16:30:05.765Z,2.90
2023-05-05T16:32:34.228Z,3.15
2023-05-05T16:35:02.158Z,2.45
2023-05-05T16:37:29.450Z,2.80
2023-05-05T16:39:56.702Z,2.80
2023-05-05T16:42:24.215Z,2.85
2023-05-05T16:44:51.438Z,3.10
2023-05-05T16:47:18.720Z,2.80
2023-05-05T16:49:46.065Z,2.70
2023-05-05T16:52:13.587Z,2.80
2023-05-05T16:54:41.566Z,2.78
2023-05-05T16:57:08.910Z,3.28
2023-05-05T16:59:36.469Z,2.65
2023-05-05T17:02:03.880Z,3.10
2023-05-05T17:04:31.240Z,2.53
2023-05-05T17:06:58.469Z,2.70
2023-05-05T17:09:25.714Z,2.50
2023-05-05T17:11:52.992Z,3.00
2023-05-05T17:14:20.215Z,2.65
2023-05-05T17:16:47.686Z,3.00
2023-05-05T17:19:14.927Z,2.72
2023-05-05T17:21:43.166Z,2.63
2023-05-05T17:24:10.489Z,3.10
2023-05-05T17:26:38.806Z,2.92
2023-05-05T17:29:06.062Z,3.17
2023-05-05T17:31:33.357Z,3.05
2023-05-05T17:34:01.098Z,2.83
2023-05-05T17:36:28.543Z,3.33
2023-05-05T17:38:56.191Z,2.40
2023-05-05T17:41:25.604Z,3.00
2023-05-05T17:43:53.460Z,3.50
2023-05-05T17:46:20.827Z,2.78
2023-05-05T17:48:48.358Z,2.60
2023-05-05T17:51:15.855Z,2.65
2023-05-05T17:53:43.495Z,2.90
2023-05-05T17:56:10.857Z,3.53
2023-05-05T17:58:38.423Z,3.40
2023-05-05T18:01:06.294Z,3.35
2023-05-05T18:03:33.744Z,3.50
2023-05-05T18:06:02.536Z,2.63
2023-05-05T18:08:29.962Z,3.40
2023-05-05T18:10:57.328Z,2.83
2023-05-05T18:13:24.617Z,3.13
2023-05-05T18:15:51.910Z,3.15
2023-05-05T18:18:20.303Z,2.67
2023-05-05T18:20:47.985Z,3.60
2023-05-05T18:23:15.418Z,3.08
2023-05-05T18:25:47.524Z,3.20
2023-05-05T18:28:19.962Z,3.00
2023-05-05T18:30:48.676Z,2.80
2023-05-05T18:33:15.976Z,3.45
2023-05-05T18:35:43.430Z,2.75
2023-05-05T18:38:10.672Z,8.45
2023-05-05T18:40:37.905Z,3.53
2023-05-05T18:43:05.158Z,3.03
2023-05-05T18:45:32.585Z,3.28
2023-05-05T18:48:00.184Z,3.05
2023-05-05T18:50:28.107Z,4.28
2023-05-05T18:52:55.593Z,4.38
2023-05-05T18:55:23.098Z,5.03
2023-05-05T18:57:50.519Z,4.47
2023-05-05T19:00:21.010Z,3.85
2023-05-05T19:02:48.867Z,3.47
2023-05-05T19:05:16.424Z,3.55
2023-05-05T19:07:45.554Z,3.28
2023-05-05T19:10:13.904Z,5.75
2023-05-05T19:15:09.491Z,5.70
2023-05-05T19:17:39.095Z,4.55
2023-05-05T19:20:06.889Z,4.65
2023-05-05T19:22:34.983Z,4.22
2023-05-05T19:25:02.603Z,6.20
2023-05-05T19:27:29.936Z,6.93
2023-05-05T19:29:57.291Z,5.55
2023-05-05T19:32:24.632Z,3.65
2023-05-05T19:34:54.343Z,4.05
2023-05-05T19:37:21.969Z,3.80
2023-05-05T19:39:49.763Z,3.28
2023-05-05T19:42:17.813Z,3.78
2023-05-05T19:44:45.256Z,3.53
2023-05-05T19:47:12.585Z,3.70
2023-05-05T19:49:39.915Z,3.70
2023-05-05T19:52:07.291Z,3.78
2023-05-05T19:54:36.582Z,3.83
2023-05-05T19:57:05.929Z,3.72
2023-05-05T19:59:33.970Z,4.47
2023-05-05T20:02:01.299Z,3.60
2023-05-05T20:04:28.720Z,3.88
2023-05-05T20:06:57.347Z,3.60
2023-05-05T20:09:24.559Z,4.25
2023-05-05T20:11:53.137Z,3.85
2023-05-05T20:14:21.854Z,3.90
2023-05-05T20:16:49.598Z,3.95
2023-05-05T20:19:18.117Z,4.13
2023-05-05T20:21:45.756Z,4.35
2023-05-05T20:24:13.035Z,4.05
2023-05-05T20:26:40.418Z,4.18
2023-05-05T20:29:07.692Z,3.83
2023-05-05T20:31:35.069Z,3.90
2023-05-05T20:34:02.529Z,4.22
2023-05-05T20:36:29.812Z,4.10
2023-05-05T20:38:57.037Z,3.53
2023-05-05T20:41:24.339Z,3.80
2023-05-05T20:43:51.800Z,4.07
2023-05-05T20:46:19.186Z,4.20
2023-05-05T20:48:46.632Z,4.03
2023-05-05T20:51:14.063Z,4.28
2023-05-05T20:53:41.651Z,4.00
2023-05-05T20:56:09.390Z,4.43
2023-05-05T20:58:36.656Z,4.55
2023-05-05T21:01:03.981Z,4.70
2023-05-05T21:03:31.393Z,4.45
2023-05-05T21:05:58.765Z,4.28
2023-05-05T21:08:26.827Z,4.15
2023-05-05T21:10:54.074Z,4.70
2023-05-05T21:13:21.525Z,4.93
2023-05-05T21:18:17.718Z,4.45
2023-05-05T21:20:44.999Z,4.30
2023-05-05T21:23:12.360Z,4.05
2023-05-05T21:25:39.669Z,4.40
2023-05-05T21:28:06.970Z,4.53
2023-05-05T21:30:34.215Z,4.65
2023-05-05T21:33:01.854Z,4.22
2023-05-05T21:35:29.182Z,4.32
2023-05-05T21:37:56.606Z,4.70
2023-05-05T21:40:23.905Z,4.00
2023-05-05T21:42:51.158Z,4.45
2023-05-05T21:45:18.449Z,4.70
2023-05-05T21:47:45.798Z,4.30
2023-05-05T21:50:13.165Z,4.38
2023-05-05T21:52:41.411Z,3.83
2023-05-05T21:55:11.005Z,4.72
2023-05-05T21:57:38.432Z,4.20
2023-05-05T22:00:06.362Z,4.10
2023-05-05T22:02:39.675Z,5.00
2023-05-05T22:05:07.489Z,4.93
2023-05-05T22:07:34.933Z,4.75
2023-05-05T22:10:03.694Z,5.03
2023-05-05T22:12:30.927Z,4.60
2023-05-05T22:14:58.196Z,5.32
2023-05-05T22:17:25.515Z,4.45
2023-05-05T22:19:52.881Z,4.30
2023-05-05T22:22:20.151Z,4.30
2023-05-05T22:24:48.565Z,4.20
2023-05-05T22:27:15.755Z,3.97
2023-05-05T22:29:43.021Z,3.65
2023-05-05T22:32:10.337Z,3.50
2023-05-05T22:34:37.741Z,4.03
2023-05-05T22:37:05.013Z,3.63
2023-05-05T22:39:33.190Z,3.17
2023-05-05T22:42:01.689Z,3.28
2023-05-05T22:44:29.087Z,3.17
2023-05-05T22:46:56.508Z,3.47
2023-05-05T22:49:23.969Z,2.88
2023-05-05T22:51:51.911Z,3.20
2023-05-05T22:54:19.252Z,3.47
2023-05-05T22:56:47.090Z,3.50
2023-05-05T22:59:14.404Z,3.67
2023-05-05T23:01:41.846Z,3.47
2023-05-05T23:04:09.782Z,3.47
2023-05-05T23:06:37.692Z,3.72
2023-05-05T23:09:05.752Z,3.28
2023-05-05T23:11:33.938Z,3.67
2023-05-05T23:14:03.833Z,3.67
2023-05-05T23:16:32.862Z,3.78
2023-05-05T23:19:01.857Z,3.67
2023-05-05T23:21:32.076Z,3.30
2023-05-05T23:24:15.777Z,3.20
2023-05-05T23:27:01.348Z,3.33
2023-05-05T23:29:30.869Z,3.17
2023-05-05T23:32:01.499Z,3.25
2023-05-05T23:34:29.612Z,3.40
2023-05-05T23:36:57.547Z,3.08
2023-05-05T23:39:31.515Z,3.72
2023-05-05T23:42:02.539Z,3.50
2023-05-05T23:44:30.473Z,3.70
2023-05-05T23:47:02.132Z,3.17
2023-05-05T23:49:30.880Z,3.40
2023-05-05T23:51:58.971Z,3.60
2023-05-05T23:54:28.954Z,3.03
2023-05-05T23:56:57.393Z,3.83
2023-05-05T23:59:27.977Z,3.22
